Time,TemperatureF,DewpointF,PressureIn,WindDirection,WindDirectionDegrees,WindSpeedMPH,WindSpeedGustMPH,Humidity,HourlyPrecipIn,Conditions,Clouds,dailyrainin,SoftwareType,DateUTC
2013-03-07 00:00:00,33.4,27.9,29.99,ENE,67,7.0,17.0,80,0.00,,,-99.99,WeatherLink 5.7,2013-03-07 05:00:00,
2013-03-07 00:05:00,33.4,27.9,29.99,ENE,67,7.0,18.0,80,0.00,,,-99.99,WeatherLink 5.7,2013-03-07 05:05:00,
2013-03-07 00:10:00,33.2,28.0,29.99,NE,45,7.0,20.0,81,0.00,,,-99.99,WeatherLink 5.7,2013-03-07 05:10:00,
2013-03-07 00:15:00,33.2,28.0,29.98,East,90,6.0,16.0,81,0.00,,,-99.99,WeatherLink 5.7,2013-03-07 05:15:00,
2013-03-07 00:20:00,33.1,28.2,29.98,ENE,67,9.0,24.0,82,0.00,,,-99.99,WeatherLink 5.7,2013-03-07 05:20:00,
2013-03-07 00:25:00,33.1,28.2,29.98,ENE,67,9.0,21.0,82,0.00,,,-99.99,WeatherLink 5.7,2013-03-07 05:25:00,
2013-03-07 00:30:00,33.1,28.2,29.98,NE,45,7.0,17.0,82,0.00,,,-99.99,WeatherLink 5.7,2013-03-07 05:30:00,
2013-03-07 00:35:00,33.1,27.9,29.98,ENE,67,8.0,20.0,81,0.00,,,-99.99,WeatherLink 5.7,2013-03-07 05:35:00,
2013-03-07 00:40:00,33.1,27.6,29.98,ENE,67,9.0,22.0,80,0.00,,,-99.99,WeatherLink 5.7,2013-03-07 05:40:00,
2013-03-07 00:45:00,33.2,27.7,29.98,ENE,67,7.0,20.0,80,0.00,,,-99.99,WeatherLink 5.7,2013-03-07 05:45:00,
2013-03-07 00:50:00,33.2,27.7,29.98,ENE,67,7.0,19.0,80,0.00,,,-99.99,WeatherLink 5.7,2013-03-07 05:50:00,
2013-03-07 00:55:00,33.2,27.4,29.98,ENE,67,9.0,24.0,79,0.00,,,-99.99,WeatherLink 5.7,2013-03-07 05:55:00,
2013-03-07 01:00:00,33.2,27.4,29.98,NE,45,7.0,19.0,79,0.00,,,-99.99,WeatherLink 5.7,2013-03-07 06:00:00,
2013-03-07 01:05:00,33.2,27.4,29.98,ENE,67,9.0,21.0,79,0.00,,,-99.99,WeatherLink 5.7,2013-03-07 06:05:00,
2013-03-07 01:10:00,33.2,27.4,29.98,ENE,67,8.0,18.0,79,0.00,,,-99.99,WeatherLink 5.7,2013-03-07 06:10:00,
2013-03-07 01:15:00,33.2,27.1,29.98,ENE,67,9.0,19.0,78,0.00,,,-99.99,WeatherLink 5.7,2013-03-07 06:15:00,
2013-03-07 01:20:00,33.2,27.1,29.98,NE,45,6.0,14.0,78,0.00,,,-99.99,WeatherLink 5.7,2013-03-07 06:20:00,
2013-03-07 01:25:00,33.2,27.1,29.98,NE,45,7.0,24.0,78,0.00,,,-99.99,WeatherLink 5.7,2013-03-07 06:25:00,
2013-03-07 01:30:00,33.2,27.1,29.98,East,90,8.0,20.0,78,0.00,,,-99.99,WeatherLink 5.7,2013-03-07 06:30:00,
2013-03-07 01:35:00,33.1,27.0,29.98,ENE,67,6.0,13.0,78,0.00,,,-99.99,WeatherLink 5.7,2013-03-07 06:35:00,
2013-03-07 01:40:00,33.1,27.3,29.98,ENE,67,7.0,21.0,79,0.00,,,-99.99,WeatherLink 5.7,2013-03-07 06:40:00,
2013-03-07 01:45:00,33.1,27.3,29.97,ENE,67,10.0,22.0,79,0.00,,,-99.99,WeatherLink 5.7,2013-03-07 06:45:00,
2013-03-07 01:50:00,32.9,27.1,29.97,ENE,67,7.0,19.0,79,0.00,,,-99.99,WeatherLink 5.7,2013-03-07 06:50:00,
2013-03-07 01:55:00,32.9,27.1,29.97,NE,45,6.0,18.0,79,0.00,,,-99.99,WeatherLink 5.7,2013-03-07 06:55:00,
2013-03-07 02:00:00,32.9,27.1,29.97,ENE,67,8.0,21.0,79,0.00,,,-99.99,WeatherLink 5.7,2013-03-07 07:00:00,
2013-03-07 02:05:00,32.8,27.0,29.97,East,90,7.0,29.0,79,0.00,,,-99.99,WeatherLink 5.7,2013-03-07 07:05:00,
2013-03-07 02:10:00,32.8,27.0,29.97,NE,45,10.0,21.0,79,0.00,,,-99.99,WeatherLink 5.7,2013-03-07 07:10:00,
2013-03-07 02:15:00,32.8,27.0,29.96,ENE,67,9.0,20.0,79,0.00,,,-99.99,WeatherLink 5.7,2013-03-07 07:15:00,
2013-03-07 02:20:00,32.7,26.9,29.96,North,0,5.0,16.0,79,0.00,,,-99.99,WeatherLink 5.7,2013-03-07 07:20:00,
2013-03-07 02:25:00,32.7,26.9,29.96,NE,45,5.0,13.0,79,0.00,,,-99.99,WeatherLink 5.7,2013-03-07 07:25:00,
2013-03-07 02:30:00,32.5,27.0,29.96,ENE,67,6.0,13.0,80,0.00,,,-99.99,WeatherLink 5.7,2013-03-07 07:30:00,
2013-03-07 02:35:00,32.2,27.0,29.96,ENE,67,8.0,19.0,81,0.00,,,-99.99,WeatherLink 5.7,2013-03-07 07:35:00,
2013-03-07 02:40:00,31.9,27.3,29.96,ENE,67,7.0,18.0,83,0.00,,,-99.99,WeatherLink 5.7,2013-03-07 07:40:00,
2013-03-07 02:45:00,31.6,27.3,29.97,East,90,6.0,17.0,84,0.00,,,-99.99,WeatherLink 5.7,2013-03-07 07:45:00,
2013-03-07 02:50:00,31.5,27.5,29.97,ENE,67,9.0,21.0,85,0.00,,,-99.99,WeatherLink 5.7,2013-03-07 07:50:00,
2013-03-07 02:55:00,31.2,27.5,29.97,NE,45,4.0,13.0,86,0.00,,,-99.99,WeatherLink 5.7,2013-03-07 07:55:00,
2013-03-07 03:00:00,31.0,27.3,29.96,NE,45,5.0,18.0,86,0.00,,,-99.99,WeatherLink 5.7,2013-03-07 08:00:00,
2013-03-07 03:05:00,30.9,27.5,29.96,NE,45,8.0,20.0,87,0.00,,,-99.99,WeatherLink 5.7,2013-03-07 08:05:00,
2013-03-07 03:10:00,30.9,27.5,29.96,NE,45,6.0,19.0,87,0.00,,,-99.99,WeatherLink 5.7,2013-03-07 08:10:00,
2013-03-07 03:15:00,30.7,27.6,29.97,ENE,67,7.0,21.0,88,0.00,,,-99.99,WeatherLink 5.7,2013-03-07 08:15:00,
2013-03-07 03:20:00,30.7,27.6,29.97,ENE,67,7.0,19.0,88,0.00,,,-99.99,WeatherLink 5.7,2013-03-07 08:20:00,
2013-03-07 03:25:00,30.6,27.5,29.97,North,0,7.0,18.0,88,0.00,,,-99.99,WeatherLink 5.7,2013-03-07 08:25:00,
2013-03-07 03:30:00,30.6,27.5,29.97,East,90,3.0,11.0,88,0.00,,,-99.99,WeatherLink 5.7,2013-03-07 08:30:00,
2013-03-07 03:35:00,30.4,27.5,29.97,NE,45,7.0,20.0,89,0.00,,,-99.99,WeatherLink 5.7,2013-03-07 08:35:00,
2013-03-07 03:40:00,30.3,27.4,29.97,NE,45,7.0,17.0,89,0.00,,,-99.99,WeatherLink 5.7,2013-03-07 08:40:00,
2013-03-07 03:45:00,30.3,27.7,29.98,ENE,67,5.0,14.0,90,0.00,,,-99.99,WeatherLink 5.7,2013-03-07 08:45:00,
2013-03-07 03:50:00,30.3,27.7,29.98,ENE,67,4.0,19.0,90,0.00,,,-99.99,WeatherLink 5.7,2013-03-07 08:50:00,
2013-03-07 03:55:00,30.1,27.5,29.98,ENE,67,4.0,16.0,90,0.00,,,-99.99,WeatherLink 5.7,2013-03-07 08:55:00,
2013-03-07 04:00:00,30.1,27.5,29.98,NNE,22,6.0,14.0,90,0.00,,,-99.99,WeatherLink 5.7,2013-03-07 09:00:00,
2013-03-07 04:05:00,30.0,27.7,29.98,ENE,67,5.0,13.0,91,0.01,,,-99.99,WeatherLink 5.7,2013-03-07 09:05:00,
2013-03-07 04:10:00,29.8,27.5,29.98,North,0,7.0,21.0,91,0.01,,,-99.99,WeatherLink 5.7,2013-03-07 09:10:00,
2013-03-07 04:15:00,29.8,27.5,29.98,NE,45,5.0,15.0,91,0.01,,,-99.99,WeatherLink 5.7,2013-03-07 09:15:00,
2013-03-07 04:20:00,29.7,27.7,29.98,NE,45,6.0,17.0,92,0.01,,,-99.99,WeatherLink 5.7,2013-03-07 09:20:00,
2013-03-07 04:25:00,29.7,27.7,29.98,NNE,22,5.0,14.0,92,0.01,,,-99.99,WeatherLink 5.7,2013-03-07 09:25:00,
2013-03-07 04:30:00,29.7,27.7,29.98,ENE,67,3.0,14.0,92,0.01,,,-99.99,WeatherLink 5.7,2013-03-07 09:30:00,
2013-03-07 04:35:00,29.5,27.5,29.98,ENE,67,7.0,20.0,92,0.02,,,-99.99,WeatherLink 5.7,2013-03-07 09:35:00,
2013-03-07 04:40:00,29.5,27.5,29.98,ENE,67,5.0,14.0,92,0.02,,,-99.99,WeatherLink 5.7,2013-03-07 09:40:00,
2013-03-07 04:45:00,29.5,27.5,29.98,NNE,22,4.0,11.0,92,0.02,,,-99.99,WeatherLink 5.7,2013-03-07 09:45:00,
2013-03-07 04:50:00,29.5,27.5,29.98,ENE,67,4.0,13.0,92,0.02,,,-99.99,WeatherLink 5.7,2013-03-07 09:50:00,
2013-03-07 04:55:00,29.7,27.7,29.98,North,0,4.0,20.0,92,0.02,,,-99.99,WeatherLink 5.7,2013-03-07 09:55:00,
2013-03-07 05:00:00,29.5,27.5,29.99,ENE,67,3.0,13.0,92,0.02,,,-99.99,WeatherLink 5.7,2013-03-07 10:00:00,
2013-03-07 05:05:00,29.5,27.5,29.99,NNE,22,5.0,18.0,92,0.01,,,-99.99,WeatherLink 5.7,2013-03-07 10:05:00,
2013-03-07 05:10:00,29.7,27.4,29.99,NNE,22,5.0,14.0,91,0.01,,,-99.99,WeatherLink 5.7,2013-03-07 10:10:00,
2013-03-07 05:15:00,29.7,27.4,29.98,ENE,67,5.0,16.0,91,0.01,,,-99.99,WeatherLink 5.7,2013-03-07 10:15:00,
2013-03-07 05:20:00,29.7,27.1,29.98,NE,45,4.0,13.0,90,0.01,,,-99.99,WeatherLink 5.7,2013-03-07 10:20:00,
2013-03-07 05:25:00,29.7,27.1,29.98,NE,45,6.0,17.0,90,0.01,,,-99.99,WeatherLink 5.7,2013-03-07 10:25:00,
2013-03-07 05:30:00,29.8,27.0,29.99,NE,45,5.0,17.0,89,0.01,,,-99.99,WeatherLink 5.7,2013-03-07 10:30:00,
2013-03-07 05:35:00,29.8,26.7,29.99,ENE,67,6.0,16.0,88,0.00,,,-99.99,WeatherLink 5.7,2013-03-07 10:35:00,
2013-03-07 05:40:00,29.8,26.7,29.99,ENE,67,4.0,16.0,88,0.00,,,-99.99,WeatherLink 5.7,2013-03-07 10:40:00,
2013-03-07 05:45:00,29.8,26.4,30.00,NE,45,4.0,14.0,87,0.00,,,-99.99,WeatherLink 5.7,2013-03-07 10:45:00,
2013-03-07 05:50:00,30.0,26.6,30.00,ENE,67,6.0,14.0,87,0.00,,,-99.99,WeatherLink 5.7,2013-03-07 10:50:00,
2013-03-07 05:55:00,30.0,26.3,30.00,NE,45,4.0,16.0,86,0.00,,,-99.99,WeatherLink 5.7,2013-03-07 10:55:00,
2013-03-07 06:00:00,30.1,26.1,30.00,NE,45,6.0,16.0,85,0.00,,,-99.99,WeatherLink 5.7,2013-03-07 11:00:00,
2013-03-07 06:05:00,30.1,26.1,30.00,NE,45,6.0,18.0,85,0.00,,,-99.99,WeatherLink 5.7,2013-03-07 11:05:00,
2013-03-07 06:10:00,30.1,25.8,30.00,NE,45,5.0,11.0,84,0.00,,,-99.99,WeatherLink 5.7,2013-03-07 11:10:00,
2013-03-07 06:15:00,30.1,25.8,30.00,NE,45,6.0,13.0,84,0.00,,,-99.99,WeatherLink 5.7,2013-03-07 11:15:00,
2013-03-07 06:20:00,30.1,25.6,30.00,North,0,4.0,13.0,83,0.00,,,-99.99,WeatherLink 5.7,2013-03-07 11:20:00,
2013-03-07 06:25:00,30.3,25.8,30.00,ENE,67,3.0,11.0,83,0.00,,,-99.99,WeatherLink 5.7,2013-03-07 11:25:00,
2013-03-07 06:30:00,30.1,25.6,30.01,NE,45,7.0,17.0,83,0.00,,,-99.99,WeatherLink 5.7,2013-03-07 11:30:00,
2013-03-07 06:35:00,30.3,25.8,30.01,NNE,22,6.0,17.0,83,0.00,,,-99.99,WeatherLink 5.7,2013-03-07 11:35:00,
2013-03-07 06:40:00,30.1,25.6,30.01,East,90,6.0,14.0,83,0.00,,,-99.99,WeatherLink 5.7,2013-03-07 11:40:00,
2013-03-07 06:45:00,30.0,25.8,30.01,ENE,67,8.0,22.0,84,0.00,,,-99.99,WeatherLink 5.7,2013-03-07 11:45:00,
2013-03-07 06:50:00,29.8,25.8,30.01,NE,45,5.0,13.0,85,0.00,,,-99.99,WeatherLink 5.7,2013-03-07 11:50:00,
2013-03-07 06:55:00,29.5,25.8,30.01,ENE,67,6.0,13.0,86,0.00,,,-99.99,WeatherLink 5.7,2013-03-07 11:55:00,
2013-03-07 07:00:00,29.5,26.1,30.02,North,0,4.0,14.0,87,0.00,,,-99.99,WeatherLink 5.7,2013-03-07 12:00:00,
2013-03-07 07:05:00,29.4,26.0,30.02,NE,45,5.0,13.0,87,0.00,,,-99.99,WeatherLink 5.7,2013-03-07 12:05:00,
2013-03-07 07:10:00,29.3,26.2,30.02,North,0,4.0,12.0,88,0.00,,,-99.99,WeatherLink 5.7,2013-03-07 12:10:00,
2013-03-07 07:15:00,29.3,26.2,30.02,NE,45,6.0,14.0,88,0.00,,,-99.99,WeatherLink 5.7,2013-03-07 12:15:00,
2013-03-07 07:20:00,29.1,26.3,30.02,ENE,67,4.0,13.0,89,0.01,,,-99.99,WeatherLink 5.7,2013-03-07 12:20:00,
2013-03-07 07:25:00,29.1,26.3,30.02,North,0,6.0,12.0,89,0.01,,,-99.99,WeatherLink 5.7,2013-03-07 12:25:00,
2013-03-07 07:30:00,29.1,26.3,30.02,NE,45,5.0,13.0,89,0.01,,,-99.99,WeatherLink 5.7,2013-03-07 12:30:00,
2013-03-07 07:35:00,29.1,26.3,30.02,East,90,8.0,19.0,89,0.01,,,-99.99,WeatherLink 5.7,2013-03-07 12:35:00,
2013-03-07 07:40:00,29.1,26.5,30.02,NE,45,4.0,11.0,90,0.01,,,-99.99,WeatherLink 5.7,2013-03-07 12:40:00,
2013-03-07 07:45:00,29.1,26.5,30.02,North,0,3.0,10.0,90,0.01,,,-99.99,WeatherLink 5.7,2013-03-07 12:45:00,
2013-03-07 07:50:00,29.1,26.5,30.02,North,0,5.0,13.0,90,0.01,,,-99.99,WeatherLink 5.7,2013-03-07 12:50:00,
2013-03-07 07:55:00,29.1,26.5,30.02,North,0,4.0,11.0,90,0.01,,,-99.99,WeatherLink 5.7,2013-03-07 12:55:00,
2013-03-07 08:00:00,29.3,26.7,30.02,North,0,4.0,12.0,90,0.01,,,-99.99,WeatherLink 5.7,2013-03-07 13:00:00,
2013-03-07 08:05:00,29.1,26.5,30.02,ENE,67,5.0,12.0,90,0.01,,,-99.99,WeatherLink 5.7,2013-03-07 13:05:00,
2013-03-07 08:10:00,29.3,26.5,30.02,North,0,7.0,15.0,89,0.01,,,-99.99,WeatherLink 5.7,2013-03-07 13:10:00,
2013-03-07 08:15:00,29.4,26.6,30.01,NE,45,4.0,14.0,89,0.01,,,-99.99,WeatherLink 5.7,2013-03-07 13:15:00,
2013-03-07 08:20:00,29.4,26.6,30.01,ENE,67,4.0,13.0,89,0.00,,,-99.99,WeatherLink 5.7,2013-03-07 13:20:00,
2013-03-07 08:25:00,29.5,26.7,30.01,NE,45,5.0,11.0,89,0.00,,,-99.99,WeatherLink 5.7,2013-03-07 13:25:00,
2013-03-07 08:30:00,29.7,26.6,30.02,NNE,22,6.0,16.0,88,0.00,,,-99.99,WeatherLink 5.7,2013-03-07 13:30:00,
2013-03-07 08:35:00,29.8,26.4,30.02,North,0,5.0,13.0,87,0.00,,,-99.99,WeatherLink 5.7,2013-03-07 13:35:00,
2013-03-07 08:40:00,30.1,26.4,30.02,ENE,67,6.0,19.0,86,0.00,,,-99.99,WeatherLink 5.7,2013-03-07 13:40:00,
2013-03-07 08:45:00,30.3,26.3,30.02,NE,45,5.0,13.0,85,0.00,,,-99.99,WeatherLink 5.7,2013-03-07 13:45:00,
2013-03-07 08:50:00,30.6,26.3,30.02,ENE,67,6.0,13.0,84,0.00,,,-99.99,WeatherLink 5.7,2013-03-07 13:50:00,
2013-03-07 08:55:00,30.7,26.4,30.02,NE,45,6.0,18.0,84,0.00,,,-99.99,WeatherLink 5.7,2013-03-07 13:55:00,
2013-03-07 09:00:00,30.7,26.1,30.01,NNE,22,8.0,21.0,83,0.00,,,-99.99,WeatherLink 5.7,2013-03-07 14:00:00,
2013-03-07 09:05:00,30.9,26.1,30.01,North,0,7.0,17.0,82,0.00,,,-99.99,WeatherLink 5.7,2013-03-07 14:05:00,
2013-03-07 09:10:00,31.0,25.9,30.01,ENE,67,7.0,16.0,81,0.00,,,-99.99,WeatherLink 5.7,2013-03-07 14:10:00,
2013-03-07 09:15:00,31.3,26.1,30.01,North,0,5.0,14.0,81,0.00,,,-99.99,WeatherLink 5.7,2013-03-07 14:15:00,
2013-03-07 09:20:00,31.3,25.8,30.01,ENE,67,7.0,14.0,80,0.00,,,-99.99,WeatherLink 5.7,2013-03-07 14:20:00,
2013-03-07 09:25:00,31.6,26.1,30.01,North,0,6.0,14.0,80,0.01,,,-99.99,WeatherLink 5.7,2013-03-07 14:25:00,
2013-03-07 09:30:00,31.8,26.0,30.00,ENE,67,5.0,13.0,79,0.01,,,-99.99,WeatherLink 5.7,2013-03-07 14:30:00,
2013-03-07 09:35:00,32.1,26.3,30.00,North,0,6.0,17.0,79,0.01,,,-99.99,WeatherLink 5.7,2013-03-07 14:35:00,
2013-03-07 09:40:00,32.2,26.4,30.00,North,0,6.0,16.0,79,0.01,,,-99.99,WeatherLink 5.7,2013-03-07 14:40:00,
2013-03-07 09:45:00,32.4,26.0,30.00,ENE,67,7.0,16.0,77,0.01,,,-99.99,WeatherLink 5.7,2013-03-07 14:45:00,
2013-03-07 09:50:00,32.5,26.1,30.00,ENE,67,8.0,19.0,77,0.01,,,-99.99,WeatherLink 5.7,2013-03-07 14:50:00,
2013-03-07 09:55:00,32.7,26.3,30.00,North,0,6.0,16.0,77,0.01,,,-99.99,WeatherLink 5.7,2013-03-07 14:55:00,
2013-03-07 10:00:00,32.7,26.3,30.00,NE,45,6.0,16.0,77,0.01,,,-99.99,WeatherLink 5.7,2013-03-07 15:00:00,
2013-03-07 10:05:00,32.7,26.3,30.00,NE,45,10.0,22.0,77,0.01,,,-99.99,WeatherLink 5.7,2013-03-07 15:05:00,
2013-03-07 10:10:00,32.7,26.3,30.00,ENE,67,7.0,18.0,77,0.01,,,-99.99,WeatherLink 5.7,2013-03-07 15:10:00,
2013-03-07 10:15:00,32.8,26.1,30.00,ENE,67,8.0,21.0,76,0.01,,,-99.99,WeatherLink 5.7,2013-03-07 15:15:00,
2013-03-07 10:20:00,32.9,26.2,30.00,NE,45,7.0,18.0,76,0.01,,,-99.99,WeatherLink 5.7,2013-03-07 15:20:00,
2013-03-07 10:25:00,33.1,26.7,30.00,NNE,22,5.0,16.0,77,0.00,,,-99.99,WeatherLink 5.7,2013-03-07 15:25:00,
2013-03-07 10:30:00,33.1,26.4,30.00,NNE,22,6.0,16.0,76,0.00,,,-99.99,WeatherLink 5.7,2013-03-07 15:30:00,
2013-03-07 10:35:00,33.1,26.4,30.00,NNE,22,7.0,21.0,76,0.00,,,-99.99,WeatherLink 5.7,2013-03-07 15:35:00,
2013-03-07 10:40:00,33.2,26.5,30.00,North,0,5.0,12.0,76,0.00,,,-99.99,WeatherLink 5.7,2013-03-07 15:40:00,
2013-03-07 10:45:00,33.4,26.6,30.01,NNE,22,5.0,14.0,76,0.00,,,-99.99,WeatherLink 5.7,2013-03-07 15:45:00,
2013-03-07 10:50:00,33.2,26.1,30.01,ENE,67,9.0,20.0,75,0.00,,,-99.99,WeatherLink 5.7,2013-03-07 15:50:00,
2013-03-07 10:55:00,33.2,26.1,30.01,ENE,67,7.0,22.0,75,0.00,,,-99.99,WeatherLink 5.7,2013-03-07 15:55:00,
2013-03-07 11:00:00,33.4,26.3,30.01,North,0,6.0,17.0,75,0.00,,,-99.99,WeatherLink 5.7,2013-03-07 16:00:00,
2013-03-07 11:05:00,33.4,26.0,30.01,ENE,67,7.0,21.0,74,0.00,,,-99.99,WeatherLink 5.7,2013-03-07 16:05:00,
2013-03-07 11:10:00,33.4,26.0,30.01,ENE,67,7.0,21.0,74,0.00,,,-99.99,WeatherLink 5.7,2013-03-07 16:10:00,
2013-03-07 11:15:00,33.4,26.0,30.01,ENE,67,5.0,14.0,74,0.00,,,-99.99,WeatherLink 5.7,2013-03-07 16:15:00,
2013-03-07 11:20:00,33.4,26.0,30.01,NE,45,8.0,22.0,74,0.00,,,-99.99,WeatherLink 5.7,2013-03-07 16:20:00,
2013-03-07 11:25:00,33.5,26.1,30.01,North,0,5.0,17.0,74,0.00,,,-99.99,WeatherLink 5.7,2013-03-07 16:25:00,
2013-03-07 11:30:00,33.5,26.1,30.01,East,90,9.0,19.0,74,0.00,,,-99.99,WeatherLink 5.7,2013-03-07 16:30:00,
2013-03-07 11:35:00,33.5,25.8,30.01,ENE,67,7.0,19.0,73,0.00,,,-99.99,WeatherLink 5.7,2013-03-07 16:35:00,
2013-03-07 11:40:00,33.8,26.1,30.01,North,0,5.0,12.0,73,0.00,,,-99.99,WeatherLink 5.7,2013-03-07 16:40:00,
2013-03-07 11:45:00,33.8,26.1,30.01,East,90,5.0,12.0,73,0.00,,,-99.99,WeatherLink 5.7,2013-03-07 16:45:00,
2013-03-07 11:50:00,34.0,26.3,30.01,North,0,4.0,14.0,73,0.00,,,-99.99,WeatherLink 5.7,2013-03-07 16:50:00,
2013-03-07 11:55:00,34.0,26.6,30.01,North,0,7.0,18.0,74,0.00,,,-99.99,WeatherLink 5.7,2013-03-07 16:55:00,
2013-03-07 12:00:00,34.0,26.3,30.02,ENE,67,8.0,19.0,73,0.00,,,-99.99,WeatherLink 5.7,2013-03-07 17:00:00,
2013-03-07 12:05:00,34.0,26.3,30.02,North,0,8.0,18.0,73,0.00,,,-99.99,WeatherLink 5.7,2013-03-07 17:05:00,
2013-03-07 12:10:00,33.8,26.1,30.02,NNE,22,7.0,18.0,73,0.00,,,-99.99,WeatherLink 5.7,2013-03-07 17:10:00,
2013-03-07 12:15:00,34.1,26.7,30.01,NNE,22,6.0,18.0,74,0.00,,,-99.99,WeatherLink 5.7,2013-03-07 17:15:00,
2013-03-07 12:20:00,34.1,26.7,30.01,ENE,67,6.0,17.0,74,0.00,,,-99.99,WeatherLink 5.7,2013-03-07 17:20:00,
2013-03-07 12:25:00,34.1,26.3,30.01,East,90,6.0,15.0,73,0.00,,,-99.99,WeatherLink 5.7,2013-03-07 17:25:00,
2013-03-07 12:30:00,34.3,26.5,30.01,North,0,6.0,18.0,73,0.00,,,-99.99,WeatherLink 5.7,2013-03-07 17:30:00,
2013-03-07 12:35:00,34.3,26.5,30.01,NNE,22,6.0,14.0,73,0.00,,,-99.99,WeatherLink 5.7,2013-03-07 17:35:00,
2013-03-07 12:40:00,34.4,26.6,30.01,North,0,4.0,16.0,73,0.00,,,-99.99,WeatherLink 5.7,2013-03-07 17:40:00,
2013-03-07 12:45:00,34.6,27.2,30.01,North,0,5.0,22.0,74,0.00,,,-99.99,WeatherLink 5.7,2013-03-07 17:45:00,
2013-03-07 12:50:00,34.3,26.5,30.01,East,90,7.0,21.0,73,0.00,,,-99.99,WeatherLink 5.7,2013-03-07 17:50:00,
2013-03-07 12:55:00,34.3,26.9,30.01,North,0,6.0,17.0,74,0.00,,,-99.99,WeatherLink 5.7,2013-03-07 17:55:00,
2013-03-07 13:00:00,34.3,26.9,30.00,North,0,8.0,22.0,74,0.00,,,-99.99,WeatherLink 5.7,2013-03-07 18:00:00,
2013-03-07 13:05:00,34.4,26.6,30.00,NE,45,6.0,14.0,73,0.00,,,-99.99,WeatherLink 5.7,2013-03-07 18:05:00,
2013-03-07 13:10:00,34.6,26.8,30.00,North,0,5.0,11.0,73,0.00,,,-99.99,WeatherLink 5.7,2013-03-07 18:10:00,
2013-03-07 13:15:00,34.6,26.5,30.00,East,90,9.0,20.0,72,0.00,,,-99.99,WeatherLink 5.7,2013-03-07 18:15:00,
2013-03-07 13:20:00,34.3,25.9,30.00,ENE,67,8.0,20.0,71,0.00,,,-99.99,WeatherLink 5.7,2013-03-07 18:20:00,
2013-03-07 13:25:00,34.3,26.2,30.00,NE,45,10.0,28.0,72,0.00,,,-99.99,WeatherLink 5.7,2013-03-07 18:25:00,
2013-03-07 13:30:00,34.4,26.3,30.00,NE,45,5.0,13.0,72,0.00,,,-99.99,WeatherLink 5.7,2013-03-07 18:30:00,
2013-03-07 13:35:00,34.4,26.3,30.00,ENE,67,5.0,15.0,72,0.00,,,-99.99,WeatherLink 5.7,2013-03-07 18:35:00,
2013-03-07 13:40:00,34.3,26.5,30.00,NE,45,7.0,19.0,73,0.00,,,-99.99,WeatherLink 5.7,2013-03-07 18:40:00,
2013-03-07 13:45:00,34.1,26.7,30.00,ENE,67,7.0,21.0,74,0.00,,,-99.99,WeatherLink 5.7,2013-03-07 18:45:00,
2013-03-07 13:50:00,34.1,26.7,30.00,ENE,67,7.0,18.0,74,0.00,,,-99.99,WeatherLink 5.7,2013-03-07 18:50:00,
2013-03-07 13:55:00,34.1,26.7,30.00,ENE,67,7.0,21.0,74,0.00,,,-99.99,WeatherLink 5.7,2013-03-07 18:55:00,
2013-03-07 14:00:00,34.3,26.5,30.00,ENE,67,8.0,21.0,73,0.00,,,-99.99,WeatherLink 5.7,2013-03-07 19:00:00,
2013-03-07 14:05:00,34.7,26.9,30.00,NNE,22,5.0,12.0,73,0.00,,,-99.99,WeatherLink 5.7,2013-03-07 19:05:00,
2013-03-07 14:10:00,35.0,26.9,30.00,North,0,7.0,17.0,72,0.00,,,-99.99,WeatherLink 5.7,2013-03-07 19:10:00,
2013-03-07 14:15:00,35.2,26.7,30.00,North,0,8.0,18.0,71,0.00,,,-99.99,WeatherLink 5.7,2013-03-07 19:15:00,
2013-03-07 14:20:00,35.2,27.1,30.00,North,0,7.0,13.0,72,0.00,,,-99.99,WeatherLink 5.7,2013-03-07 19:20:00,
2013-03-07 14:25:00,34.7,26.9,30.00,NE,45,6.0,22.0,73,0.00,,,-99.99,WeatherLink 5.7,2013-03-07 19:25:00,
2013-03-07 14:30:00,34.4,27.0,30.00,NE,45,7.0,13.0,74,0.00,,,-99.99,WeatherLink 5.7,2013-03-07 19:30:00,
2013-03-07 14:35:00,34.3,26.9,30.00,NE,45,4.0,16.0,74,0.00,,,-99.99,WeatherLink 5.7,2013-03-07 19:35:00,
2013-03-07 14:40:00,34.1,27.0,30.00,ENE,67,5.0,13.0,75,0.00,,,-99.99,WeatherLink 5.7,2013-03-07 19:40:00,
2013-03-07 14:45:00,34.0,27.2,30.01,ENE,67,6.0,14.0,76,0.00,,,-99.99,WeatherLink 5.7,2013-03-07 19:45:00,
2013-03-07 14:50:00,33.8,27.0,30.01,ENE,67,5.0,14.0,76,0.00,,,-99.99,WeatherLink 5.7,2013-03-07 19:50:00,
2013-03-07 14:55:00,33.8,27.7,30.01,NE,45,5.0,17.0,78,0.00,,,-99.99,WeatherLink 5.7,2013-03-07 19:55:00,
2013-03-07 15:00:00,33.7,27.9,30.01,NE,45,6.0,17.0,79,0.00,,,-99.99,WeatherLink 5.7,2013-03-07 20:00:00,
2013-03-07 15:05:00,33.5,28.0,30.01,North,0,4.0,11.0,80,0.00,,,-99.99,WeatherLink 5.7,2013-03-07 20:05:00,
2013-03-07 15:10:00,33.5,28.3,30.01,North,0,4.0,16.0,81,0.00,,,-99.99,WeatherLink 5.7,2013-03-07 20:10:00,
2013-03-07 15:15:00,33.5,28.0,30.02,ENE,67,7.0,18.0,80,0.00,,,-99.99,WeatherLink 5.7,2013-03-07 20:15:00,
2013-03-07 15:20:00,33.5,28.0,30.02,North,0,4.0,10.0,80,0.00,,,-99.99,WeatherLink 5.7,2013-03-07 20:20:00,
2013-03-07 15:25:00,33.4,28.2,30.02,North,0,5.0,13.0,81,0.00,,,-99.99,WeatherLink 5.7,2013-03-07 20:25:00,
2013-03-07 15:30:00,33.2,28.3,30.02,NE,45,3.0,13.0,82,0.00,,,-99.99,WeatherLink 5.7,2013-03-07 20:30:00,
2013-03-07 15:35:00,33.2,28.3,30.02,North,0,5.0,14.0,82,0.00,,,-99.99,WeatherLink 5.7,2013-03-07 20:35:00,
2013-03-07 15:40:00,33.2,28.0,30.02,North,0,3.0,13.0,81,0.00,,,-99.99,WeatherLink 5.7,2013-03-07 20:40:00,
2013-03-07 15:45:00,33.4,28.5,30.02,North,0,2.0,7.0,82,0.00,,,-99.99,WeatherLink 5.7,2013-03-07 20:45:00,
2013-03-07 15:50:00,33.4,28.5,30.02,North,0,2.0,13.0,82,0.00,,,-99.99,WeatherLink 5.7,2013-03-07 20:50:00,
2013-03-07 15:55:00,33.5,28.6,30.02,North,0,5.0,11.0,82,0.00,,,-99.99,WeatherLink 5.7,2013-03-07 20:55:00,
2013-03-07 16:00:00,33.4,28.5,30.02,NE,45,4.0,12.0,82,0.00,,,-99.99,WeatherLink 5.7,2013-03-07 21:00:00,
2013-03-07 16:05:00,33.4,28.5,30.02,North,0,4.0,11.0,82,0.00,,,-99.99,WeatherLink 5.7,2013-03-07 21:05:00,
2013-03-07 16:10:00,33.4,28.5,30.02,North,0,5.0,12.0,82,0.00,,,-99.99,WeatherLink 5.7,2013-03-07 21:10:00,
2013-03-07 16:15:00,33.2,28.0,30.02,NE,45,5.0,11.0,81,0.00,,,-99.99,WeatherLink 5.7,2013-03-07 21:15:00,
2013-03-07 16:20:00,33.1,28.2,30.02,NE,45,3.0,12.0,82,0.00,,,-99.99,WeatherLink 5.7,2013-03-07 21:20:00,
2013-03-07 16:25:00,32.9,28.3,30.02,North,0,5.0,13.0,83,0.00,,,-99.99,WeatherLink 5.7,2013-03-07 21:25:00,
2013-03-07 16:30:00,32.8,28.2,30.02,North,0,5.0,17.0,83,0.00,,,-99.99,WeatherLink 5.7,2013-03-07 21:30:00,
2013-03-07 16:35:00,32.7,28.4,30.02,NNE,22,5.0,18.0,84,0.00,,,-99.99,WeatherLink 5.7,2013-03-07 21:35:00,
2013-03-07 16:40:00,32.7,28.4,30.02,NNE,22,5.0,13.0,84,0.00,,,-99.99,WeatherLink 5.7,2013-03-07 21:40:00,
2013-03-07 16:45:00,32.7,28.4,30.02,NE,45,2.0,10.0,84,0.00,,,-99.99,WeatherLink 5.7,2013-03-07 21:45:00,
2013-03-07 16:50:00,32.7,28.7,30.02,NNW,337,2.0,12.0,85,0.00,,,-99.99,WeatherLink 5.7,2013-03-07 21:50:00,
2013-03-07 16:55:00,32.5,28.8,30.02,North,0,5.0,12.0,86,0.00,,,-99.99,WeatherLink 5.7,2013-03-07 21:55:00,
2013-03-07 17:00:00,32.5,28.8,30.02,North,0,3.0,11.0,86,0.00,,,-99.99,WeatherLink 5.7,2013-03-07 22:00:00,
2013-03-07 17:05:00,32.4,28.7,30.02,North,0,2.0,7.0,86,0.00,,,-99.99,WeatherLink 5.7,2013-03-07 22:05:00,
2013-03-07 17:10:00,32.2,28.8,30.02,ENE,67,2.0,7.0,87,0.00,,,-99.99,WeatherLink 5.7,2013-03-07 22:10:00,
2013-03-07 17:15:00,32.2,28.8,30.03,NNW,337,3.0,11.0,87,0.00,,,-99.99,WeatherLink 5.7,2013-03-07 22:15:00,
2013-03-07 17:20:00,32.1,28.7,30.03,North,0,3.0,8.0,87,0.00,,,-99.99,WeatherLink 5.7,2013-03-07 22:20:00,
2013-03-07 17:25:00,31.9,28.8,30.03,North,0,3.0,7.0,88,0.01,,,-99.99,WeatherLink 5.7,2013-03-07 22:25:00,
2013-03-07 17:30:00,31.8,28.7,30.03,North,0,3.0,11.0,88,0.01,,,-99.99,WeatherLink 5.7,2013-03-07 22:30:00,
2013-03-07 17:35:00,31.6,28.5,30.03,NNE,22,2.0,8.0,88,0.01,,,-99.99,WeatherLink 5.7,2013-03-07 22:35:00,
2013-03-07 17:40:00,31.5,28.4,30.03,North,0,3.0,10.0,88,0.01,,,-99.99,WeatherLink 5.7,2013-03-07 22:40:00,
2013-03-07 17:45:00,31.3,28.4,30.03,North,0,4.0,10.0,89,0.01,,,-99.99,WeatherLink 5.7,2013-03-07 22:45:00,
2013-03-07 17:50:00,31.3,28.4,30.03,NNW,337,4.0,12.0,89,0.01,,,-99.99,WeatherLink 5.7,2013-03-07 22:50:00,
2013-03-07 17:55:00,31.3,28.7,30.03,North,0,4.0,8.0,90,0.01,,,-99.99,WeatherLink 5.7,2013-03-07 22:55:00,
2013-03-07 18:00:00,31.2,28.6,30.04,North,0,3.0,8.0,90,0.02,,,-99.99,WeatherLink 5.7,2013-03-07 23:00:00,
2013-03-07 18:05:00,31.2,28.6,30.04,NE,45,2.0,8.0,90,0.02,,,-99.99,WeatherLink 5.7,2013-03-07 23:05:00,
2013-03-07 18:10:00,31.0,28.4,30.04,North,0,4.0,10.0,90,0.02,,,-99.99,WeatherLink 5.7,2013-03-07 23:10:00,
2013-03-07 18:15:00,31.0,28.4,30.04,North,0,4.0,8.0,90,0.02,,,-99.99,WeatherLink 5.7,2013-03-07 23:15:00,
2013-03-07 18:20:00,30.9,28.3,30.04,NE,45,3.0,7.0,90,0.02,,,-99.99,WeatherLink 5.7,2013-03-07 23:20:00,
2013-03-07 18:25:00,30.9,28.6,30.04,ENE,67,4.0,12.0,91,0.01,,,-99.99,WeatherLink 5.7,2013-03-07 23:25:00,
2013-03-07 18:30:00,30.9,28.6,30.03,North,0,4.0,11.0,91,0.01,,,-99.99,WeatherLink 5.7,2013-03-07 23:30:00,
2013-03-07 18:35:00,31.0,28.7,30.03,North,0,3.0,12.0,91,0.01,,,-99.99,WeatherLink 5.7,2013-03-07 23:35:00,
2013-03-07 18:40:00,30.9,28.3,30.03,NNE,22,4.0,16.0,90,0.01,,,-99.99,WeatherLink 5.7,2013-03-07 23:40:00,
2013-03-07 18:45:00,30.9,28.3,30.04,North,0,2.0,9.0,90,0.01,,,-99.99,WeatherLink 5.7,2013-03-07 23:45:00,
2013-03-07 18:50:00,30.9,28.3,30.04,North,0,3.0,9.0,90,0.01,,,-99.99,WeatherLink 5.7,2013-03-07 23:50:00,
2013-03-07 18:55:00,30.9,28.3,30.04,North,0,1.0,6.0,90,0.01,,,-99.99,WeatherLink 5.7,2013-03-07 23:55:00,
2013-03-07 19:00:00,30.9,28.3,30.04,North,0,3.0,11.0,90,0.00,,,-99.99,WeatherLink 5.7,2013-03-08 00:00:00,
2013-03-07 19:05:00,30.9,28.3,30.04,North,0,3.0,11.0,90,0.00,,,-99.99,WeatherLink 5.7,2013-03-08 00:05:00,
2013-03-07 19:10:00,30.9,28.3,30.04,North,0,4.0,8.0,90,0.00,,,-99.99,WeatherLink 5.7,2013-03-08 00:10:00,
2013-03-07 19:15:00,30.7,28.1,30.04,North,0,4.0,11.0,90,0.00,,,-99.99,WeatherLink 5.7,2013-03-08 00:15:00,
2013-03-07 19:20:00,30.7,28.1,30.04,North,0,2.0,11.0,90,0.00,,,-99.99,WeatherLink 5.7,2013-03-08 00:20:00,
2013-03-07 19:25:00,30.7,28.1,30.04,North,0,4.0,13.0,90,0.00,,,-99.99,WeatherLink 5.7,2013-03-08 00:25:00,
2013-03-07 19:30:00,30.7,28.4,30.04,North,0,3.0,11.0,91,0.01,,,-99.99,WeatherLink 5.7,2013-03-08 00:30:00,
2013-03-07 19:35:00,30.7,28.4,30.04,NNE,22,1.0,6.0,91,0.01,,,-99.99,WeatherLink 5.7,2013-03-08 00:35:00,
2013-03-07 19:40:00,30.7,28.4,30.04,North,0,3.0,7.0,91,0.01,,,-99.99,WeatherLink 5.7,2013-03-08 00:40:00,
2013-03-07 19:45:00,30.7,28.4,30.04,North,0,6.0,11.0,91,0.01,,,-99.99,WeatherLink 5.7,2013-03-08 00:45:00,
2013-03-07 19:50:00,30.7,28.4,30.04,North,0,1.0,7.0,91,0.01,,,-99.99,WeatherLink 5.7,2013-03-08 00:50:00,
2013-03-07 19:55:00,30.7,28.4,30.04,North,0,3.0,12.0,91,0.01,,,-99.99,WeatherLink 5.7,2013-03-08 00:55:00,
2013-03-07 20:00:00,30.7,28.4,30.04,NNE,22,2.0,7.0,91,0.02,,,-99.99,WeatherLink 5.7,2013-03-08 01:00:00,
2013-03-07 20:05:00,30.9,28.6,30.04,North,0,2.0,6.0,91,0.02,,,-99.99,WeatherLink 5.7,2013-03-08 01:05:00,
2013-03-07 20:10:00,30.9,28.9,30.04,North,0,1.0,5.0,92,0.02,,,-99.99,WeatherLink 5.7,2013-03-08 01:10:00,
2013-03-07 20:15:00,30.9,28.9,30.03,North,0,3.0,12.0,92,0.02,,,-99.99,WeatherLink 5.7,2013-03-08 01:15:00,
2013-03-07 20:20:00,31.0,28.9,30.03,North,0,3.0,7.0,92,0.03,,,-99.99,WeatherLink 5.7,2013-03-08 01:20:00,
2013-03-07 20:25:00,31.0,28.9,30.03,North,0,2.0,11.0,92,0.03,,,-99.99,WeatherLink 5.7,2013-03-08 01:25:00,
2013-03-07 20:30:00,31.0,28.9,30.03,North,0,2.0,8.0,92,0.02,,,-99.99,WeatherLink 5.7,2013-03-08 01:30:00,
2013-03-07 20:35:00,31.0,28.9,30.03,North,0,3.0,8.0,92,0.02,,,-99.99,WeatherLink 5.7,2013-03-08 01:35:00,
2013-03-07 20:40:00,31.0,28.9,30.03,NE,45,2.0,11.0,92,0.02,,,-99.99,WeatherLink 5.7,2013-03-08 01:40:00,
2013-03-07 20:45:00,31.2,29.1,30.03,North,0,4.0,12.0,92,0.03,,,-99.99,WeatherLink 5.7,2013-03-08 01:45:00,
2013-03-07 20:50:00,31.2,29.1,30.03,North,0,3.0,10.0,92,0.03,,,-99.99,WeatherLink 5.7,2013-03-08 01:50:00,
2013-03-07 20:55:00,31.2,29.1,30.03,North,0,3.0,8.0,92,0.04,,,-99.99,WeatherLink 5.7,2013-03-08 01:55:00,
2013-03-07 21:00:00,31.2,29.1,30.03,North,0,3.0,8.0,92,0.03,,,-99.99,WeatherLink 5.7,2013-03-08 02:00:00,
2013-03-07 21:05:00,31.2,29.1,30.03,North,0,1.0,8.0,92,0.03,,,-99.99,WeatherLink 5.7,2013-03-08 02:05:00,
2013-03-07 21:10:00,31.2,29.1,30.03,North,0,4.0,11.0,92,0.03,,,-99.99,WeatherLink 5.7,2013-03-08 02:10:00,
2013-03-07 21:15:00,31.2,29.1,30.02,North,0,3.0,8.0,92,0.04,,,-99.99,WeatherLink 5.7,2013-03-08 02:15:00,
2013-03-07 21:20:00,31.2,29.1,30.02,NE,45,1.0,8.0,92,0.03,,,-99.99,WeatherLink 5.7,2013-03-08 02:20:00,
2013-03-07 21:25:00,31.2,29.4,30.02,NW,315,1.0,4.0,93,0.03,,,-99.99,WeatherLink 5.7,2013-03-08 02:25:00,
2013-03-07 21:30:00,31.2,29.4,30.02,North,0,4.0,8.0,93,0.04,,,-99.99,WeatherLink 5.7,2013-03-08 02:30:00,
2013-03-07 21:35:00,31.2,29.4,30.02,NNE,22,4.0,14.0,93,0.04,,,-99.99,WeatherLink 5.7,2013-03-08 02:35:00,
2013-03-07 21:40:00,31.0,29.2,30.02,NNE,22,1.0,8.0,93,0.04,,,-99.99,WeatherLink 5.7,2013-03-08 02:40:00,
2013-03-07 21:45:00,31.0,29.2,30.02,NE,45,3.0,8.0,93,0.03,,,-99.99,WeatherLink 5.7,2013-03-08 02:45:00,
2013-03-07 21:50:00,31.0,28.9,30.02,North,0,5.0,12.0,92,0.03,,,-99.99,WeatherLink 5.7,2013-03-08 02:50:00,
2013-03-07 21:55:00,31.0,29.2,30.02,North,0,3.0,8.0,93,0.03,,,-99.99,WeatherLink 5.7,2013-03-08 02:55:00,
2013-03-07 22:00:00,31.0,28.9,30.01,North,0,4.0,10.0,92,0.03,,,-99.99,WeatherLink 5.7,2013-03-08 03:00:00,
2013-03-07 22:05:00,31.0,28.9,30.01,North,0,5.0,13.0,92,0.03,,,-99.99,WeatherLink 5.7,2013-03-08 03:05:00,
2013-03-07 22:10:00,31.0,28.9,30.01,North,0,3.0,7.0,92,0.03,,,-99.99,WeatherLink 5.7,2013-03-08 03:10:00,
2013-03-07 22:15:00,31.0,28.9,30.01,NNE,22,3.0,11.0,92,0.02,,,-99.99,WeatherLink 5.7,2013-03-08 03:15:00,
2013-03-07 22:20:00,31.0,28.9,30.01,NE,45,2.0,10.0,92,0.03,,,-99.99,WeatherLink 5.7,2013-03-08 03:20:00,
2013-03-07 22:25:00,31.0,28.9,30.01,North,0,4.0,11.0,92,0.03,,,-99.99,WeatherLink 5.7,2013-03-08 03:25:00,
2013-03-07 22:30:00,31.0,28.9,30.00,North,0,5.0,12.0,92,0.02,,,-99.99,WeatherLink 5.7,2013-03-08 03:30:00,
2013-03-07 22:35:00,30.9,28.9,30.00,NNE,22,4.0,10.0,92,0.02,,,-99.99,WeatherLink 5.7,2013-03-08 03:35:00,
2013-03-07 22:40:00,30.9,28.9,30.00,North,0,5.0,11.0,92,0.03,,,-99.99,WeatherLink 5.7,2013-03-08 03:40:00,
2013-03-07 22:45:00,30.7,28.7,30.00,NE,45,3.0,11.0,92,0.03,,,-99.99,WeatherLink 5.7,2013-03-08 03:45:00,
2013-03-07 22:50:00,30.6,28.6,30.00,NNE,22,2.0,6.0,92,0.04,,,-99.99,WeatherLink 5.7,2013-03-08 03:50:00,
2013-03-07 22:55:00,30.6,28.6,30.00,North,0,2.0,7.0,92,0.03,,,-99.99,WeatherLink 5.7,2013-03-08 03:55:00,
2013-03-07 23:00:00,30.6,28.8,30.00,NNE,22,2.0,7.0,93,0.03,,,-99.99,WeatherLink 5.7,2013-03-08 04:00:00,
2013-03-07 23:05:00,30.6,28.8,30.00,North,0,3.0,11.0,93,0.04,,,-99.99,WeatherLink 5.7,2013-03-08 04:05:00,
2013-03-07 23:10:00,30.4,28.6,30.00,North,0,4.0,13.0,93,0.04,,,-99.99,WeatherLink 5.7,2013-03-08 04:10:00,
2013-03-07 23:15:00,30.3,28.5,30.00,NNE,22,3.0,8.0,93,0.04,,,-99.99,WeatherLink 5.7,2013-03-08 04:15:00,
2013-03-07 23:20:00,30.3,28.5,30.00,North,0,4.0,11.0,93,0.03,,,-99.99,WeatherLink 5.7,2013-03-08 04:20:00,
2013-03-07 23:25:00,30.1,28.3,30.00,North,0,2.0,6.0,93,0.03,,,-99.99,WeatherLink 5.7,2013-03-08 04:25:00,
2013-03-07 23:30:00,30.0,28.2,30.00,NE,45,7.0,16.0,93,0.04,,,-99.99,WeatherLink 5.7,2013-03-08 04:30:00,
2013-03-07 23:35:00,30.0,28.2,30.00,NE,45,3.0,10.0,93,0.04,,,-99.99,WeatherLink 5.7,2013-03-08 04:35:00,
2013-03-07 23:40:00,29.8,28.0,30.00,NNE,22,4.0,12.0,93,0.03,,,-99.99,WeatherLink 5.7,2013-03-08 04:40:00,
2013-03-07 23:45:00,29.8,28.0,30.00,NE,45,2.0,8.0,93,0.03,,,-99.99,WeatherLink 5.7,2013-03-08 04:45:00,
2013-03-07 23:50:00,29.8,28.0,30.00,North,0,6.0,14.0,93,0.03,,,-99.99,WeatherLink 5.7,2013-03-08 04:50:00,
2013-03-07 23:55:00,29.8,28.0,30.00,NE,45,2.0,6.0,93,0.03,,,-99.99,WeatherLink 5.7,2013-03-08 04:55:00,